createdAt,value
2018-03-23T00:01:02.915Z,32.07
2018-03-23T00:03:30.382Z,33.27
2018-03-23T00:05:58.616Z,35.00
2018-03-23T00:08:26.099Z,35.33
2018-03-23T00:10:53.586Z,32.93
2018-03-23T00:13:21.043Z,31.60
2018-03-23T00:15:48.519Z,32.03
2018-03-23T00:18:15.974Z,28.87
2018-03-23T00:20:43.540Z,26.97
2018-03-23T00:23:11.046Z,28.43
2018-03-23T00:25:38.545Z,26.90
2018-03-23T00:28:06.000Z,28.97
2018-03-23T00:30:33.512Z,29.20
2018-03-23T00:33:00.982Z,29.07
2018-03-23T00:35:28.454Z,27.13
2018-03-23T00:37:55.957Z,28.93
2018-03-23T00:40:23.419Z,30.63
2018-03-23T00:42:50.884Z,29.23
2018-03-23T00:45:18.368Z,27.40
2018-03-23T00:47:46.613Z,27.90
2018-03-23T00:50:14.094Z,26.73
2018-03-23T00:52:41.562Z,28.60
2018-03-23T00:55:09.766Z,28.33
2018-03-23T00:57:37.237Z,26.97
2018-03-23T01:00:04.699Z,25.70
2018-03-23T01:02:32.181Z,28.60
2018-03-23T01:04:59.664Z,25.43
2018-03-23T01:07:27.154Z,25.90
2018-03-23T01:09:54.603Z,28.27
2018-03-23T01:12:22.082Z,28.43
2018-03-23T01:14:49.553Z,27.67
2018-03-23T01:17:17.022Z,26.30
2018-03-23T01:19:44.499Z,25.23
2018-03-23T01:22:14.944Z,24.87
2018-03-23T01:24:42.420Z,25.20
2018-03-23T01:27:09.915Z,25.50
2018-03-23T01:29:37.397Z,25.40
2018-03-23T01:32:04.876Z,25.73
2018-03-23T01:34:32.355Z,22.90
2018-03-23T01:36:59.876Z,20.60
2018-03-23T01:39:27.299Z,20.87
2018-03-23T01:41:54.759Z,22.93
2018-03-23T01:44:22.237Z,23.37
2018-03-23T01:46:49.708Z,23.83
2018-03-23T01:49:17.984Z,24.70
2018-03-23T01:51:45.428Z,23.50
2018-03-23T01:54:12.905Z,24.37
2018-03-23T01:56:40.371Z,23.17
2018-03-23T01:59:07.863Z,23.87
2018-03-23T02:01:35.334Z,24.17
2018-03-23T02:04:02.795Z,24.93
2018-03-23T02:06:30.343Z,22.93
2018-03-23T02:08:57.807Z,23.20
2018-03-23T02:11:25.264Z,24.23
2018-03-23T02:13:52.722Z,23.63
2018-03-23T02:16:20.266Z,23.43
2018-03-23T02:18:47.734Z,25.73
2018-03-23T02:21:15.192Z,23.60
2018-03-23T02:23:42.722Z,23.00
2018-03-23T02:26:10.177Z,24.17
2018-03-23T02:28:37.646Z,23.57
2018-03-23T02:31:05.301Z,24.30
2018-03-23T02:33:34.295Z,22.67
2018-03-23T02:36:01.755Z,23.27
2018-03-23T02:38:29.242Z,23.67
2018-03-23T02:40:56.702Z,24.40
2018-03-23T02:43:24.161Z,24.27
2018-03-23T02:45:51.617Z,23.77
2018-03-23T02:48:19.094Z,22.60
2018-03-23T02:50:46.559Z,24.00
2018-03-23T02:53:14.015Z,24.00
2018-03-23T02:55:41.504Z,24.07
2018-03-23T02:58:08.966Z,22.93
2018-03-23T03:00:36.440Z,23.43
2018-03-23T03:03:03.929Z,21.97
2018-03-23T03:05:32.161Z,23.63
2018-03-23T03:07:59.627Z,20.23
2018-03-23T03:10:27.188Z,20.30
2018-03-23T03:12:54.657Z,21.03
2018-03-23T03:15:22.132Z,22.27
2018-03-23T03:17:50.360Z,22.30
2018-03-23T03:20:17.892Z,21.80
2018-03-23T03:22:45.356Z,22.27
2018-03-23T03:25:12.859Z,23.27
2018-03-23T03:27:40.321Z,21.80
2018-03-23T03:30:07.805Z,23.83
2018-03-23T03:32:36.040Z,28.03
2018-03-23T03:35:03.516Z,23.83
2018-03-23T03:37:31.038Z,24.90
2018-03-23T03:39:58.531Z,25.67
2018-03-23T03:42:25.991Z,25.37
2018-03-23T03:44:53.452Z,24.43
2018-03-23T03:47:21.698Z,25.17
2018-03-23T03:49:49.167Z,23.20
2018-03-23T03:52:16.630Z,24.10
2018-03-23T03:54:44.093Z,24.97
2018-03-23T03:57:11.566Z,26.47
2018-03-23T03:59:39.032Z,26.07
2018-03-23T04:02:06.577Z,27.43
2018-03-23T04:04:34.808Z,27.37
2018-03-23T04:07:02.294Z,28.03
2018-03-23T04:09:29.763Z,30.40
2018-03-23T04:11:57.241Z,27.90
2018-03-23T04:14:24.713Z,29.43
2018-03-23T04:16:52.195Z,28.97
2018-03-23T04:19:19.659Z,30.73
2018-03-23T04:21:47.216Z,31.13
2018-03-23T04:24:14.680Z,32.57
2018-03-23T04:26:42.169Z,30.67
2018-03-23T04:29:09.628Z,27.27
2018-03-23T04:31:37.086Z,29.33
2018-03-23T04:34:04.570Z,32.30
2018-03-23T04:36:32.036Z,31.43
2018-03-23T04:38:59.527Z,39.40
2018-03-23T04:41:26.979Z,35.57
2018-03-23T04:43:54.447Z,30.53
2018-03-23T04:46:21.920Z,32.00
2018-03-23T04:48:49.388Z,33.50
2018-03-23T04:51:16.869Z,33.57
2018-03-23T04:53:44.339Z,34.77
2018-03-23T04:56:11.803Z,35.40
2018-03-23T04:58:39.287Z,45.37
2018-03-23T05:01:06.755Z,44.23
2018-03-23T05:03:34.236Z,41.60
2018-03-23T05:06:01.695Z,37.67
2018-03-23T05:08:29.164Z,36.17
2018-03-23T05:10:56.633Z,37.33
2018-03-23T05:13:24.096Z,37.20
2018-03-23T05:15:51.566Z,38.80
2018-03-23T05:18:19.041Z,38.97
2018-03-23T05:20:46.525Z,41.40
2018-03-23T05:23:13.993Z,40.17
2018-03-23T05:25:41.503Z,40.40
2018-03-23T05:28:09.044Z,38.77
2018-03-23T05:30:36.611Z,38.93
2018-03-23T05:33:04.114Z,42.57
2018-03-23T05:35:32.393Z,40.80
2018-03-23T05:37:59.907Z,41.87
2018-03-23T05:40:27.432Z,38.63
2018-03-23T05:42:55.053Z,45.03
2018-03-23T05:45:22.605Z,42.67
2018-03-23T05:47:50.076Z,39.93
2018-03-23T05:50:17.724Z,47.03
2018-03-23T05:52:45.239Z,41.67
2018-03-23T05:55:12.888Z,45.77
2018-03-23T05:57:40.452Z,44.23
2018-03-23T06:00:07.970Z,43.17
2018-03-23T06:02:35.471Z,49.50
2018-03-23T06:05:03.029Z,47.27
2018-03-23T06:07:30.530Z,42.67
2018-03-23T06:09:58.120Z,46.43
2018-03-23T06:12:25.699Z,42.83
2018-03-23T06:14:53.286Z,47.03
2018-03-23T06:17:21.705Z,47.50
2018-03-23T06:19:49.247Z,42.60
2018-03-23T06:22:16.761Z,45.93
2018-03-23T06:24:44.331Z,48.27
2018-03-23T06:27:11.868Z,46.90
2018-03-23T06:29:39.463Z,44.87
2018-03-23T06:32:07.104Z,46.53
2018-03-23T06:34:34.631Z,50.17
2018-03-23T06:37:02.234Z,41.20
2018-03-23T06:39:29.820Z,45.07
2018-03-23T06:41:57.380Z,45.87
2018-03-23T06:44:24.904Z,48.03
2018-03-23T06:46:52.449Z,48.87
2018-03-23T06:49:20.054Z,48.33
2018-03-23T06:51:47.633Z,49.90
2018-03-23T06:54:15.197Z,45.80
2018-03-23T06:56:42.746Z,45.13
2018-03-23T06:59:11.036Z,48.97
2018-03-23T07:01:38.569Z,51.33
2018-03-23T07:04:06.138Z,46.07
2018-03-23T07:06:33.692Z,46.77
2018-03-23T07:09:01.236Z,45.93
2018-03-23T07:11:28.796Z,43.20
2018-03-23T07:13:56.520Z,44.23
2018-03-23T07:16:24.091Z,47.07
2018-03-23T07:18:51.616Z,46.30
2018-03-23T07:21:19.216Z,43.03
2018-03-23T07:23:46.870Z,48.27
2018-03-23T07:26:14.480Z,46.23
2018-03-23T07:28:42.074Z,51.23
2018-03-23T07:31:09.633Z,49.10
2018-03-23T07:33:37.919Z,49.73
2018-03-23T07:36:05.464Z,47.13
2018-03-23T07:38:33.868Z,49.00
2018-03-23T07:41:01.440Z,47.93
2018-03-23T07:43:29.034Z,48.80
2018-03-23T07:45:56.595Z,46.90
2018-03-23T07:48:24.179Z,47.93
2018-03-23T07:50:51.975Z,48.20
2018-03-23T07:53:19.579Z,47.80
2018-03-23T07:55:47.100Z,45.13
2018-03-23T07:58:14.649Z,46.47
2018-03-23T08:00:42.925Z,44.23
2018-03-23T08:03:10.455Z,46.00
2018-03-23T08:05:38.059Z,48.10
2018-03-23T08:08:05.585Z,50.60
2018-03-23T08:10:33.098Z,48.57
2018-03-23T08:13:00.607Z,47.13
2018-03-23T08:15:28.162Z,48.17
2018-03-23T08:17:55.768Z,46.83
2018-03-23T08:20:23.294Z,46.80
2018-03-23T08:22:50.840Z,45.10
2018-03-23T08:25:18.409Z,45.63
2018-03-23T08:27:46.280Z,47.43
2018-03-23T08:30:13.862Z,47.20
2018-03-23T08:32:41.408Z,43.93
2018-03-23T08:35:09.006Z,44.53
2018-03-23T08:37:36.562Z,44.97
2018-03-23T08:40:04.156Z,47.37
2018-03-23T08:42:31.656Z,45.67
2018-03-23T08:44:59.229Z,50.43
2018-03-23T08:47:26.747Z,54.77
2018-03-23T08:49:54.343Z,48.13
2018-03-23T08:52:21.968Z,49.17
2018-03-23T08:54:49.560Z,51.37
2018-03-23T08:57:17.094Z,48.97
2018-03-23T08:59:44.663Z,46.20
2018-03-23T09:02:13.054Z,49.57
2018-03-23T09:04:41.334Z,47.03
2018-03-23T09:07:08.860Z,47.73
2018-03-23T09:09:36.551Z,46.70
2018-03-23T09:12:04.268Z,45.33
2018-03-23T09:14:31.799Z,43.97
2018-03-23T09:17:00.102Z,45.37
2018-03-23T09:19:27.619Z,45.80
2018-03-23T09:21:55.128Z,44.73
2018-03-23T09:24:22.635Z,48.97
2018-03-23T09:26:50.286Z,43.23
2018-03-23T09:29:17.777Z,43.17
2018-03-23T09:31:45.321Z,41.83
2018-03-23T09:34:13.636Z,49.87
2018-03-23T09:36:41.172Z,44.57
2018-03-23T09:39:09.502Z,46.67
2018-03-23T09:41:37.916Z,43.10
2018-03-23T09:44:05.475Z,41.17
2018-03-23T09:46:33.783Z,42.43
2018-03-23T09:49:02.095Z,44.87
2018-03-23T09:51:29.590Z,44.50
2018-03-23T09:53:57.134Z,46.73
2018-03-23T09:56:25.363Z,45.50
2018-03-23T09:58:52.893Z,43.43
2018-03-23T10:01:20.387Z,40.70
2018-03-23T10:03:47.904Z,43.40
2018-03-23T10:06:15.444Z,35.23
2018-03-23T10:08:43.747Z,46.23
2018-03-23T10:11:11.264Z,40.00
2018-03-23T10:13:38.774Z,43.17
2018-03-23T10:16:06.336Z,40.63
2018-03-23T10:18:33.812Z,44.73
2018-03-23T10:21:01.302Z,41.90
2018-03-23T10:23:28.751Z,40.50
2018-03-23T10:25:56.235Z,39.67
2018-03-23T10:28:24.480Z,39.87
2018-03-23T10:30:51.948Z,39.77
2018-03-23T10:33:19.491Z,39.37
2018-03-23T10:35:46.960Z,39.20
2018-03-23T10:38:14.436Z,38.03
2018-03-23T10:40:42.720Z,40.40
2018-03-23T10:43:10.182Z,39.40
2018-03-23T10:45:37.752Z,39.87
2018-03-23T10:48:05.235Z,37.90
2018-03-23T10:50:32.712Z,41.33
2018-03-23T10:53:00.200Z,37.97
2018-03-23T10:55:28.456Z,39.07
2018-03-23T10:57:55.956Z,41.90
2018-03-23T11:00:42.156Z,38.03
2018-03-23T11:03:09.628Z,38.73
2018-03-23T11:05:37.083Z,39.17
2018-03-23T11:08:04.601Z,40.00
2018-03-23T11:10:32.828Z,45.13
2018-03-23T11:13:00.297Z,34.47
2018-03-23T11:15:27.768Z,36.77
2018-03-23T11:17:55.246Z,38.80
2018-03-23T11:20:22.707Z,34.53
2018-03-23T11:22:50.932Z,36.57
2018-03-23T11:25:18.431Z,37.33
2018-03-23T11:27:45.928Z,37.47
2018-03-23T11:30:13.421Z,38.63
2018-03-23T11:32:40.887Z,35.47
2018-03-23T11:35:08.347Z,34.47
2018-03-23T11:37:36.589Z,32.87
2018-03-23T11:40:04.822Z,37.37
2018-03-23T11:42:33.044Z,36.70
2018-03-23T11:45:00.530Z,36.90
2018-03-23T11:47:28.016Z,36.47
2018-03-23T11:49:55.495Z,31.93
2018-03-23T11:52:22.964Z,28.87
2018-03-23T11:54:50.439Z,31.70
2018-03-23T11:57:17.905Z,29.70
2018-03-23T11:59:45.379Z,30.80
2018-03-23T12:02:13.604Z,30.50
2018-03-23T12:04:41.060Z,29.00
2018-03-23T12:07:08.702Z,29.77
2018-03-23T12:09:36.157Z,32.40
2018-03-23T12:12:03.687Z,31.27
2018-03-23T12:14:31.157Z,32.60
2018-03-23T12:16:58.644Z,29.93
2018-03-23T12:19:26.103Z,27.23
2018-03-23T12:21:53.582Z,29.73
2018-03-23T12:24:21.055Z,28.60
2018-03-23T12:26:48.536Z,27.87
2018-03-23T12:29:15.995Z,26.23
2018-03-23T12:31:43.480Z,24.70
2018-03-23T12:34:10.951Z,27.97
2018-03-23T12:36:38.431Z,27.17
2018-03-23T12:39:05.905Z,29.13
2018-03-23T12:41:33.372Z,33.20
2018-03-23T12:44:01.615Z,28.67
2018-03-23T12:46:29.863Z,27.10
2018-03-23T12:48:57.340Z,26.73
2018-03-23T12:51:24.823Z,29.60
2018-03-23T12:53:52.297Z,25.87
2018-03-23T12:56:19.760Z,27.97
2018-03-23T12:58:47.248Z,25.83
2018-03-23T13:01:14.704Z,26.40
2018-03-23T13:03:42.203Z,24.63
2018-03-23T13:06:09.671Z,21.33
2018-03-23T13:08:37.302Z,20.77
2018-03-23T13:11:04.803Z,25.50
2018-03-23T13:13:32.299Z,23.17
2018-03-23T13:15:59.764Z,23.40
2018-03-23T13:18:27.239Z,21.80
2018-03-23T13:20:54.708Z,20.67
2018-03-23T13:23:22.176Z,20.50
2018-03-23T13:25:49.727Z,20.90
2018-03-23T13:28:17.191Z,21.77
2018-03-23T13:30:45.431Z,19.70
2018-03-23T13:33:12.945Z,25.57
2018-03-23T13:35:40.431Z,28.40
2018-03-23T13:38:07.912Z,29.33
2018-03-23T13:40:35.408Z,33.73
2018-03-23T13:43:03.641Z,26.83
2018-03-23T13:45:31.113Z,30.47
2018-03-23T13:47:58.599Z,24.47
2018-03-23T13:50:26.062Z,30.90
2018-03-23T13:52:54.373Z,27.37
2018-03-23T13:55:21.852Z,23.87
2018-03-23T13:57:49.472Z,28.80
2018-03-23T14:00:22.516Z,25.97
2018-03-23T14:02:49.985Z,25.87
2018-03-23T14:05:17.452Z,25.37
2018-03-23T14:07:44.919Z,26.07
2018-03-23T14:10:12.376Z,25.93
2018-03-23T14:12:39.858Z,29.00
2018-03-23T14:15:07.312Z,27.13
2018-03-23T14:17:34.788Z,29.37
2018-03-23T14:20:02.252Z,30.70
2018-03-23T14:22:29.717Z,28.07
2018-03-23T14:24:57.185Z,23.13
2018-03-23T14:27:24.652Z,24.07
2018-03-23T14:29:52.142Z,22.67
2018-03-23T14:32:19.614Z,26.00
2018-03-23T14:34:47.094Z,25.87
2018-03-23T14:37:14.552Z,23.07
2018-03-23T14:39:42.020Z,23.00
2018-03-23T14:42:09.483Z,21.80
2018-03-23T14:44:36.958Z,24.37
2018-03-23T14:47:05.179Z,24.93
2018-03-23T14:49:32.650Z,24.60
2018-03-23T14:52:00.110Z,25.77
2018-03-23T14:54:27.577Z,23.70
2018-03-23T14:56:55.051Z,23.90
2018-03-23T14:59:22.540Z,22.80
2018-03-23T15:01:49.992Z,23.77
2018-03-23T15:04:17.500Z,23.30
2018-03-23T15:06:44.980Z,23.63
2018-03-23T15:09:13.199Z,23.13
2018-03-23T15:11:40.704Z,22.93
2018-03-23T15:14:15.948Z,21.87
2018-03-23T15:16:44.203Z,21.33
2018-03-23T15:19:11.653Z,22.00
2018-03-23T15:21:39.126Z,21.20
2018-03-23T15:24:06.586Z,21.50
2018-03-23T15:26:34.057Z,23.50
2018-03-23T15:29:01.523Z,21.50
2018-03-23T15:31:29.094Z,22.00
2018-03-23T15:33:56.560Z,24.47
2018-03-23T15:36:24.027Z,24.30
2018-03-23T15:38:51.520Z,22.93
2018-03-23T15:41:19.001Z,27.27
2018-03-23T15:43:46.508Z,25.93
2018-03-23T15:46:13.993Z,30.43
2018-03-23T15:48:41.460Z,26.03
2018-03-23T15:51:08.934Z,25.67
2018-03-23T15:53:36.395Z,25.50
2018-03-23T15:56:03.855Z,27.63
2018-03-23T15:58:31.316Z,25.20
2018-03-23T16:00:58.805Z,21.53
2018-03-23T16:03:26.304Z,25.40
2018-03-23T16:05:53.783Z,24.67
2018-03-23T16:08:22.036Z,25.13
2018-03-23T16:10:49.498Z,25.73
2018-03-23T16:13:17.032Z,27.20
2018-03-23T16:15:44.471Z,25.03
2018-03-23T16:18:11.951Z,22.93
2018-03-23T16:20:39.428Z,26.33
2018-03-23T16:23:07.672Z,26.37
2018-03-23T16:25:35.921Z,26.87
2018-03-23T16:28:03.427Z,23.90
2018-03-23T16:30:31.307Z,25.40
2018-03-23T16:32:58.786Z,25.27
2018-03-23T16:35:26.259Z,28.40
2018-03-23T16:37:53.752Z,25.50
2018-03-23T16:40:21.218Z,25.67
2018-03-23T16:42:48.712Z,27.03
2018-03-23T16:45:16.188Z,25.23
2018-03-23T16:47:43.663Z,27.97
2018-03-23T16:50:11.141Z,27.17
2018-03-23T16:52:38.636Z,27.93
2018-03-23T16:55:06.249Z,25.83
2018-03-23T16:57:33.907Z,24.97
2018-03-23T17:00:01.396Z,26.83
2018-03-23T17:02:28.872Z,26.50
2018-03-23T17:04:56.352Z,28.70
2018-03-23T17:07:23.853Z,25.37
2018-03-23T17:09:51.329Z,24.50
2018-03-23T17:12:19.576Z,25.73
2018-03-23T17:14:47.065Z,24.57
2018-03-23T17:17:14.553Z,25.43
2018-03-23T17:19:42.062Z,25.10
2018-03-23T17:22:09.549Z,26.43
2018-03-23T17:24:37.804Z,26.97
2018-03-23T17:27:05.308Z,30.30
2018-03-23T17:29:32.797Z,25.53
2018-03-23T17:32:00.292Z,29.23
2018-03-23T17:34:27.757Z,27.83
2018-03-23T17:36:55.988Z,27.37
2018-03-23T17:39:23.478Z,26.13
2018-03-23T17:41:50.947Z,24.13
2018-03-23T17:44:18.415Z,24.97
2018-03-23T17:46:45.982Z,25.87
2018-03-23T17:49:13.440Z,23.53
2018-03-23T17:51:40.946Z,29.50
2018-03-23T17:54:08.503Z,28.93
2018-03-23T17:56:35.980Z,26.30
2018-03-23T17:59:03.469Z,28.10
2018-03-23T18:01:30.941Z,29.20
2018-03-23T18:03:58.412Z,30.13
2018-03-23T18:06:25.888Z,33.23
2018-03-23T18:08:53.349Z,27.87
2018-03-23T18:11:20.831Z,32.40
2018-03-23T18:13:49.059Z,27.37
2018-03-23T18:16:17.350Z,27.60
2018-03-23T18:18:44.819Z,26.90
2018-03-23T18:21:12.299Z,29.40
2018-03-23T18:23:39.759Z,28.73
2018-03-23T18:26:07.229Z,27.63
2018-03-23T18:28:34.720Z,29.37
2018-03-23T18:31:02.190Z,28.00
2018-03-23T18:33:29.664Z,26.37
2018-03-23T18:35:57.123Z,26.07
2018-03-23T18:38:25.509Z,27.63
2018-03-23T18:40:53.007Z,29.73
2018-03-23T18:43:20.495Z,28.77
2018-03-23T18:45:47.971Z,27.70
2018-03-23T18:48:15.457Z,29.73
2018-03-23T18:50:42.948Z,32.60
2018-03-23T18:53:10.434Z,29.07
2018-03-23T18:55:37.912Z,32.43
2018-03-23T18:58:05.398Z,30.83
2018-03-23T19:00:32.863Z,31.40
2018-03-23T19:03:00.359Z,32.93
2018-03-23T19:05:27.828Z,31.77
2018-03-23T19:07:55.303Z,30.07
2018-03-23T19:10:22.764Z,30.30
2018-03-23T19:12:50.263Z,32.57
2018-03-23T19:15:17.749Z,28.13
2018-03-23T19:17:46.015Z,32.10
2018-03-23T19:20:13.497Z,33.83
2018-03-23T19:22:40.975Z,30.03
2018-03-23T19:25:08.482Z,29.80
2018-03-23T19:27:35.963Z,32.13
2018-03-23T19:30:03.462Z,30.87
2018-03-23T19:32:30.933Z,30.17
2018-03-23T19:34:58.412Z,28.40
2018-03-23T19:37:25.881Z,31.00
2018-03-23T19:39:53.373Z,30.23
2018-03-23T19:42:20.840Z,30.23
2018-03-23T19:44:48.329Z,31.03
2018-03-23T19:47:15.798Z,30.83
2018-03-23T19:49:43.281Z,31.90
2018-03-23T19:52:10.760Z,30.23
2018-03-23T19:54:38.252Z,33.60
2018-03-23T19:57:05.785Z,31.50
2018-03-23T19:59:33.224Z,31.63
2018-03-23T20:02:02.111Z,29.83
2018-03-23T20:04:29.637Z,34.20
2018-03-23T20:06:57.112Z,33.27
2018-03-23T20:09:24.587Z,32.77
2018-03-23T20:11:52.924Z,32.87
2018-03-23T20:14:20.415Z,34.00
2018-03-23T20:16:47.896Z,32.53
2018-03-23T20:19:15.361Z,31.20
2018-03-23T20:21:42.850Z,35.13
2018-03-23T20:24:29.771Z,31.00
2018-03-23T20:27:02.822Z,32.60
2018-03-23T20:29:30.303Z,36.97
2018-03-23T20:32:03.444Z,33.10
2018-03-23T20:34:30.908Z,31.87
2018-03-23T20:36:58.460Z,33.63
2018-03-23T20:39:25.927Z,35.80
2018-03-23T20:41:53.408Z,37.63
2018-03-23T20:44:20.888Z,33.55
2018-03-23T20:46:48.366Z,35.00
2018-03-23T20:49:16.664Z,32.10
2018-03-23T20:51:44.153Z,32.30
2018-03-23T20:54:11.609Z,33.30
2018-03-23T20:56:39.092Z,30.63
2018-03-23T20:59:06.560Z,29.03
2018-03-23T21:01:34.057Z,30.13
2018-03-23T21:04:02.290Z,30.20
2018-03-23T21:06:29.770Z,35.13
2018-03-23T21:08:57.262Z,31.13
2018-03-23T21:11:24.741Z,32.77
2018-03-23T21:13:52.244Z,34.40
2018-03-23T21:16:19.770Z,34.87
2018-03-23T21:18:47.242Z,33.10
2018-03-23T21:21:14.698Z,33.77
2018-03-23T21:23:42.178Z,33.17
2018-03-23T21:26:09.646Z,32.27
2018-03-23T21:28:37.118Z,30.90
2018-03-23T21:31:04.592Z,34.40
2018-03-23T21:33:32.872Z,37.00
2018-03-23T21:36:00.358Z,42.77
2018-03-23T21:38:27.935Z,45.20
2018-03-23T21:40:55.400Z,36.07
2018-03-23T21:43:22.880Z,37.33
2018-03-23T21:45:50.355Z,34.47
2018-03-23T21:48:17.842Z,41.87
2018-03-23T21:50:45.304Z,35.80
2018-03-23T21:53:12.780Z,38.40
2018-03-23T21:55:40.250Z,38.57
2018-03-23T21:58:08.491Z,38.90
2018-03-23T22:00:35.967Z,39.70
2018-03-23T22:03:03.428Z,36.10
2018-03-23T22:05:31.420Z,41.23
2018-03-23T22:07:58.879Z,37.90
2018-03-23T22:10:26.362Z,35.83
2018-03-23T22:12:53.846Z,39.43
2018-03-23T22:15:21.311Z,38.30
2018-03-23T22:17:48.779Z,36.10
2018-03-23T22:20:16.248Z,36.57
2018-03-23T22:22:43.716Z,36.53
2018-03-23T22:25:11.196Z,36.53
2018-03-23T22:27:38.668Z,37.77
2018-03-23T22:30:06.166Z,37.20
2018-03-23T22:32:33.640Z,37.93
2018-03-23T22:35:01.890Z,35.23
2018-03-23T22:37:29.358Z,39.77
2018-03-23T22:39:56.864Z,34.87
2018-03-23T22:42:24.343Z,38.83
2018-03-23T22:44:51.803Z,39.43
2018-03-23T22:47:19.287Z,39.93
2018-03-23T22:49:46.746Z,37.97
2018-03-23T22:52:14.216Z,39.03
2018-03-23T22:54:42.458Z,39.17
2018-03-23T22:57:09.932Z,39.43
2018-03-23T22:59:37.401Z,39.60
2018-03-23T23:02:04.882Z,40.47
2018-03-23T23:04:32.375Z,47.37
2018-03-23T23:06:59.856Z,38.60
2018-03-23T23:09:27.319Z,40.97
2018-03-23T23:11:54.787Z,41.33
2018-03-23T23:14:23.015Z,40.07
2018-03-23T23:16:50.509Z,38.37
2018-03-23T23:19:17.967Z,39.30
2018-03-23T23:21:45.459Z,40.53
2018-03-23T23:24:12.937Z,44.67
2018-03-23T23:26:40.411Z,43.20
2018-03-23T23:29:07.880Z,43.30
2018-03-23T23:31:35.340Z,41.40
2018-03-23T23:34:02.815Z,42.70
2018-03-23T23:36:31.064Z,43.83
2018-03-23T23:38:58.543Z,44.20
2018-03-23T23:41:26.008Z,44.17
2018-03-23T23:43:53.485Z,41.83
2018-03-23T23:46:20.952Z,45.20
2018-03-23T23:48:48.419Z,43.50
2018-03-23T23:51:15.955Z,45.57
2018-03-23T23:53:43.685Z,43.47
2018-03-23T23:56:11.163Z,43.17
2018-03-23T23:58:39.393Z,43.80
